sensor_id;sensor_type;location;lat;lon;timestamp;P1;durP1;ratioP1;P2;durP2;ratioP2
70707;SDS011;58277;47.316;18.908;2022-08-01T00:01:36;6.33;;;4.40;;
70707;SDS011;58277;47.316;18.908;2022-08-01T00:03:59;6.57;;;4.20;;
70707;SDS011;58277;47.316;18.908;2022-08-01T00:06:21;5.72;;;4.20;;
70707;SDS011;58277;47.316;18.908;2022-08-01T00:08:44;6.00;;;4.22;;
70707;SDS011;58277;47.316;18.908;2022-08-01T00:11:07;6.47;;;4.53;;
70707;SDS011;58277;47.316;18.908;2022-08-01T00:13:31;5.87;;;4.00;;
70707;SDS011;58277;47.316;18.908;2022-08-01T00:15:53;5.82;;;4.38;;
70707;SDS011;58277;47.316;18.908;2022-08-01T00:18:16;7.20;;;4.57;;
70707;SDS011;58277;47.316;18.908;2022-08-01T00:20:39;5.70;;;4.18;;
70707;SDS011;58277;47.316;18.908;2022-08-01T00:23:02;7.07;;;4.07;;
70707;SDS011;58277;47.316;18.908;2022-08-01T00:25:25;6.30;;;4.03;;
70707;SDS011;58277;47.316;18.908;2022-08-01T00:27:55;8.73;;;4.22;;
70707;SDS011;58277;47.316;18.908;2022-08-01T00:30:18;7.55;;;4.55;;
70707;SDS011;58277;47.316;18.908;2022-08-01T00:32:41;5.95;;;4.07;;
70707;SDS011;58277;47.316;18.908;2022-08-01T00:35:04;6.82;;;4.18;;
70707;SDS011;58277;47.316;18.908;2022-08-01T00:37:27;6.10;;;4.23;;
70707;SDS011;58277;47.316;18.908;2022-08-01T00:39:50;5.55;;;4.30;;
70707;SDS011;58277;47.316;18.908;2022-08-01T00:42:13;5.90;;;4.20;;
70707;SDS011;58277;47.316;18.908;2022-08-01T00:44:35;6.90;;;4.20;;
70707;SDS011;58277;47.316;18.908;2022-08-01T00:46:58;7.90;;;4.35;;
70707;SDS011;58277;47.316;18.908;2022-08-01T00:49:22;6.70;;;4.27;;
70707;SDS011;58277;47.316;18.908;2022-08-01T00:51:44;7.00;;;4.13;;
70707;SDS011;58277;47.316;18.908;2022-08-01T00:54:07;6.70;;;4.57;;
70707;SDS011;58277;47.316;18.908;2022-08-01T00:56:34;5.90;;;4.03;;
70707;SDS011;58277;47.316;18.908;2022-08-01T00:58:56;5.50;;;4.07;;
70707;SDS011;58277;47.316;18.908;2022-08-01T01:01:20;8.60;;;4.77;;
70707;SDS011;58277;47.316;18.908;2022-08-01T01:03:44;6.45;;;4.38;;
70707;SDS011;58277;47.316;18.908;2022-08-01T01:09:23;7.28;;;4.57;;
70707;SDS011;58277;47.316;18.908;2022-08-01T01:12:13;7.82;;;4.50;;
70707;SDS011;58277;47.316;18.908;2022-08-01T01:14:47;7.47;;;4.67;;
70707;SDS011;58277;47.316;18.908;2022-08-01T01:17:32;8.23;;;4.72;;
70707;SDS011;58277;47.316;18.908;2022-08-01T01:20:13;7.32;;;4.60;;
70707;SDS011;58277;47.316;18.908;2022-08-01T01:25:26;7.85;;;4.60;;
70707;SDS011;58277;47.316;18.908;2022-08-01T01:30:43;6.45;;;4.40;;
70707;SDS011;58277;47.316;18.908;2022-08-01T01:33:08;11.68;;;4.97;;
70707;SDS011;58277;47.316;18.908;2022-08-01T01:35:34;7.15;;;4.35;;
70707;SDS011;58277;47.316;18.908;2022-08-01T01:38:01;7.65;;;4.25;;
70707;SDS011;58277;47.316;18.908;2022-08-01T01:40:29;8.00;;;4.60;;
70707;SDS011;58277;47.316;18.908;2022-08-01T01:42:53;10.35;;;4.90;;
70707;SDS011;58277;47.316;18.908;2022-08-01T01:45:18;7.82;;;5.00;;
70707;SDS011;58277;47.316;18.908;2022-08-01T01:47:43;6.90;;;4.30;;
70707;SDS011;58277;47.316;18.908;2022-08-01T01:50:07;8.88;;;4.78;;
70707;SDS011;58277;47.316;18.908;2022-08-01T01:52:32;7.77;;;4.73;;
70707;SDS011;58277;47.316;18.908;2022-08-01T01:54:56;8.43;;;5.07;;
70707;SDS011;58277;47.316;18.908;2022-08-01T01:57:21;8.50;;;4.78;;
70707;SDS011;58277;47.316;18.908;2022-08-01T01:59:46;7.35;;;4.25;;
70707;SDS011;58277;47.316;18.908;2022-08-01T02:02:10;6.32;;;4.15;;
70707;SDS011;58277;47.316;18.908;2022-08-01T02:04:35;6.90;;;4.30;;
70707;SDS011;58277;47.316;18.908;2022-08-01T02:07:00;7.38;;;4.60;;
70707;SDS011;58277;47.316;18.908;2022-08-01T02:09:24;6.43;;;4.32;;
70707;SDS011;58277;47.316;18.908;2022-08-01T02:11:49;6.68;;;4.55;;
70707;SDS011;58277;47.316;18.908;2022-08-01T02:14:28;10.75;;;4.63;;
70707;SDS011;58277;47.316;18.908;2022-08-01T02:16:52;7.33;;;4.77;;
70707;SDS011;58277;47.316;18.908;2022-08-01T02:19:18;7.53;;;4.75;;
70707;SDS011;58277;47.316;18.908;2022-08-01T02:24:17;7.22;;;4.60;;
70707;SDS011;58277;47.316;18.908;2022-08-01T02:26:52;8.00;;;4.82;;
70707;SDS011;58277;47.316;18.908;2022-08-01T02:29:18;7.13;;;4.50;;
70707;SDS011;58277;47.316;18.908;2022-08-01T02:31:45;8.38;;;5.15;;
70707;SDS011;58277;47.316;18.908;2022-08-01T02:34:10;6.72;;;4.88;;
70707;SDS011;58277;47.316;18.908;2022-08-01T02:36:35;8.73;;;4.90;;
70707;SDS011;58277;47.316;18.908;2022-08-01T02:39:00;8.55;;;5.20;;
70707;SDS011;58277;47.316;18.908;2022-08-01T02:41:28;7.30;;;4.67;;
70707;SDS011;58277;47.316;18.908;2022-08-01T02:43:59;7.07;;;5.10;;
70707;SDS011;58277;47.316;18.908;2022-08-01T02:46:27;7.20;;;4.97;;
70707;SDS011;58277;47.316;18.908;2022-08-01T02:48:56;6.20;;;4.30;;
70707;SDS011;58277;47.316;18.908;2022-08-01T02:51:22;7.82;;;5.15;;
70707;SDS011;58277;47.316;18.908;2022-08-01T02:53:47;9.27;;;4.40;;
70707;SDS011;58277;47.316;18.908;2022-08-01T02:56:12;7.15;;;4.80;;
70707;SDS011;58277;47.316;18.908;2022-08-01T02:58:36;9.18;;;5.07;;
70707;SDS011;58277;47.316;18.908;2022-08-01T03:01:00;7.47;;;5.00;;
70707;SDS011;58277;47.316;18.908;2022-08-01T03:03:25;6.85;;;5.28;;
70707;SDS011;58277;47.316;18.908;2022-08-01T03:05:48;7.80;;;4.90;;
70707;SDS011;58277;47.316;18.908;2022-08-01T03:08:11;8.13;;;5.50;;
70707;SDS011;58277;47.316;18.908;2022-08-01T03:10:36;9.23;;;5.35;;
70707;SDS011;58277;47.316;18.908;2022-08-01T03:13:01;7.47;;;5.28;;
70707;SDS011;58277;47.316;18.908;2022-08-01T03:15:26;7.90;;;5.97;;
70707;SDS011;58277;47.316;18.908;2022-08-01T03:17:53;10.13;;;5.30;;
70707;SDS011;58277;47.316;18.908;2022-08-01T03:20:18;7.82;;;5.25;;
70707;SDS011;58277;47.316;18.908;2022-08-01T03:22:43;9.23;;;5.75;;
70707;SDS011;58277;47.316;18.908;2022-08-01T03:25:07;7.53;;;4.85;;
70707;SDS011;58277;47.316;18.908;2022-08-01T03:27:31;8.90;;;5.57;;
70707;SDS011;58277;47.316;18.908;2022-08-01T03:29:56;9.17;;;5.70;;
70707;SDS011;58277;47.316;18.908;2022-08-01T03:32:25;8.63;;;5.32;;
70707;SDS011;58277;47.316;18.908;2022-08-01T03:34:50;12.05;;;6.00;;
70707;SDS011;58277;47.316;18.908;2022-08-01T03:39:42;8.30;;;5.32;;
70707;SDS011;58277;47.316;18.908;2022-08-01T03:42:11;8.43;;;4.73;;
70707;SDS011;58277;47.316;18.908;2022-08-01T03:44:36;8.07;;;5.13;;
70707;SDS011;58277;47.316;18.908;2022-08-01T03:47:02;7.90;;;5.00;;
70707;SDS011;58277;47.316;18.908;2022-08-01T03:49:33;6.65;;;4.82;;
70707;SDS011;58277;47.316;18.908;2022-08-01T03:52:01;6.93;;;4.72;;
70707;SDS011;58277;47.316;18.908;2022-08-01T03:54:28;6.80;;;4.63;;
70707;SDS011;58277;47.316;18.908;2022-08-01T03:56:54;6.57;;;4.35;;
70707;SDS011;58277;47.316;18.908;2022-08-01T03:59:19;10.23;;;5.20;;
70707;SDS011;58277;47.316;18.908;2022-08-01T04:01:44;8.73;;;4.82;;
70707;SDS011;58277;47.316;18.908;2022-08-01T04:04:08;7.80;;;4.63;;
70707;SDS011;58277;47.316;18.908;2022-08-01T04:06:31;6.80;;;4.53;;
70707;SDS011;58277;47.316;18.908;2022-08-01T04:08:54;7.40;;;4.57;;
70707;SDS011;58277;47.316;18.908;2022-08-01T04:11:18;10.48;;;4.90;;
70707;SDS011;58277;47.316;18.908;2022-08-01T04:13:40;6.32;;;4.30;;
70707;SDS011;58277;47.316;18.908;2022-08-01T04:16:05;8.93;;;5.22;;
70707;SDS011;58277;47.316;18.908;2022-08-01T04:18:28;7.73;;;5.00;;
70707;SDS011;58277;47.316;18.908;2022-08-01T04:20:50;8.10;;;5.70;;
70707;SDS011;58277;47.316;18.908;2022-08-01T04:23:15;8.20;;;5.10;;
70707;SDS011;58277;47.316;18.908;2022-08-01T04:25:39;6.57;;;4.53;;
70707;SDS011;58277;47.316;18.908;2022-08-01T04:28:04;6.97;;;4.35;;
70707;SDS011;58277;47.316;18.908;2022-08-01T04:30:30;6.33;;;4.30;;
70707;SDS011;58277;47.316;18.908;2022-08-01T04:32:57;7.05;;;4.75;;
70707;SDS011;58277;47.316;18.908;2022-08-01T04:35:21;7.03;;;4.50;;
70707;SDS011;58277;47.316;18.908;2022-08-01T04:38:04;7.03;;;4.60;;
70707;SDS011;58277;47.316;18.908;2022-08-01T04:40:28;6.53;;;4.60;;
70707;SDS011;58277;47.316;18.908;2022-08-01T04:42:51;7.60;;;4.80;;
70707;SDS011;58277;47.316;18.908;2022-08-01T04:45:14;6.85;;;4.82;;
70707;SDS011;58277;47.316;18.908;2022-08-01T04:47:37;6.75;;;4.40;;
70707;SDS011;58277;47.316;18.908;2022-08-01T04:50:04;6.43;;;4.40;;
70707;SDS011;58277;47.316;18.908;2022-08-01T04:52:37;5.70;;;4.20;;
70707;SDS011;58277;47.316;18.908;2022-08-01T04:55:02;6.90;;;4.07;;
70707;SDS011;58277;47.316;18.908;2022-08-01T04:57:26;7.10;;;4.28;;
70707;SDS011;58277;47.316;18.908;2022-08-01T04:59:55;5.20;;;4.20;;
70707;SDS011;58277;47.316;18.908;2022-08-01T05:02:19;6.15;;;4.38;;
70707;SDS011;58277;47.316;18.908;2022-08-01T05:04:41;8.30;;;4.30;;
70707;SDS011;58277;47.316;18.908;2022-08-01T05:07:05;6.87;;;4.33;;
70707;SDS011;58277;47.316;18.908;2022-08-01T05:09:29;5.40;;;4.15;;
70707;SDS011;58277;47.316;18.908;2022-08-01T05:11:53;7.53;;;4.18;;
70707;SDS011;58277;47.316;18.908;2022-08-01T05:14:15;6.75;;;4.00;;
70707;SDS011;58277;47.316;18.908;2022-08-01T05:16:38;6.05;;;4.30;;
70707;SDS011;58277;47.316;18.908;2022-08-01T05:19:01;5.97;;;3.70;;
70707;SDS011;58277;47.316;18.908;2022-08-01T05:21:28;4.72;;;3.90;;
70707;SDS011;58277;47.316;18.908;2022-08-01T05:23:51;7.93;;;4.25;;
70707;SDS011;58277;47.316;18.908;2022-08-01T05:26:15;6.28;;;4.10;;
70707;SDS011;58277;47.316;18.908;2022-08-01T05:28:37;6.53;;;4.20;;
70707;SDS011;58277;47.316;18.908;2022-08-01T05:31:00;6.17;;;4.40;;
70707;SDS011;58277;47.316;18.908;2022-08-01T05:33:22;5.47;;;4.25;;
70707;SDS011;58277;47.316;18.908;2022-08-01T05:35:45;5.40;;;4.30;;
70707;SDS011;58277;47.316;18.908;2022-08-01T05:38:10;6.10;;;4.07;;
70707;SDS011;58277;47.316;18.908;2022-08-01T05:40:36;6.50;;;4.10;;
70707;SDS011;58277;47.316;18.908;2022-08-01T05:42:59;7.37;;;4.40;;
70707;SDS011;58277;47.316;18.908;2022-08-01T05:45:21;6.80;;;4.50;;
70707;SDS011;58277;47.316;18.908;2022-08-01T05:47:44;7.15;;;4.93;;
70707;SDS011;58277;47.316;18.908;2022-08-01T05:50:07;6.13;;;4.60;;
70707;SDS011;58277;47.316;18.908;2022-08-01T05:52:30;6.68;;;4.70;;
70707;SDS011;58277;47.316;18.908;2022-08-01T05:54:53;5.97;;;4.67;;
70707;SDS011;58277;47.316;18.908;2022-08-01T05:57:15;6.18;;;4.60;;
70707;SDS011;58277;47.316;18.908;2022-08-01T05:59:38;7.03;;;4.95;;
70707;SDS011;58277;47.316;18.908;2022-08-01T06:02:01;7.40;;;5.07;;
70707;SDS011;58277;47.316;18.908;2022-08-01T06:04:24;8.52;;;4.93;;
70707;SDS011;58277;47.316;18.908;2022-08-01T06:06:46;7.47;;;4.67;;
70707;SDS011;58277;47.316;18.908;2022-08-01T06:09:09;6.03;;;4.55;;
70707;SDS011;58277;47.316;18.908;2022-08-01T06:11:31;6.60;;;4.60;;
70707;SDS011;58277;47.316;18.908;2022-08-01T06:13:54;5.25;;;4.32;;
70707;SDS011;58277;47.316;18.908;2022-08-01T06:16:17;6.03;;;4.90;;
70707;SDS011;58277;47.316;18.908;2022-08-01T06:18:40;5.97;;;5.00;;
70707;SDS011;58277;47.316;18.908;2022-08-01T06:21:02;5.63;;;4.78;;
70707;SDS011;58277;47.316;18.908;2022-08-01T06:23:25;6.78;;;5.30;;
70707;SDS011;58277;47.316;18.908;2022-08-01T06:25:57;6.72;;;4.63;;
70707;SDS011;58277;47.316;18.908;2022-08-01T06:28:42;6.50;;;4.60;;
70707;SDS011;58277;47.316;18.908;2022-08-01T06:31:04;5.50;;;4.50;;
70707;SDS011;58277;47.316;18.908;2022-08-01T06:33:27;6.15;;;4.70;;
70707;SDS011;58277;47.316;18.908;2022-08-01T06:35:50;5.80;;;4.40;;
70707;SDS011;58277;47.316;18.908;2022-08-01T06:38:13;5.88;;;4.32;;
70707;SDS011;58277;47.316;18.908;2022-08-01T06:40:36;6.63;;;4.50;;
70707;SDS011;58277;47.316;18.908;2022-08-01T06:43:00;6.07;;;4.80;;
70707;SDS011;58277;47.316;18.908;2022-08-01T06:45:23;5.88;;;4.78;;
70707;SDS011;58277;47.316;18.908;2022-08-01T06:47:48;7.03;;;4.50;;
70707;SDS011;58277;47.316;18.908;2022-08-01T06:50:12;5.93;;;4.70;;
70707;SDS011;58277;47.316;18.908;2022-08-01T06:52:37;6.88;;;5.00;;
70707;SDS011;58277;47.316;18.908;2022-08-01T06:55:00;5.90;;;4.50;;
70707;SDS011;58277;47.316;18.908;2022-08-01T06:57:22;7.78;;;4.35;;
70707;SDS011;58277;47.316;18.908;2022-08-01T06:59:48;8.15;;;5.68;;
70707;SDS011;58277;47.316;18.908;2022-08-01T07:02:15;7.97;;;4.60;;
70707;SDS011;58277;47.316;18.908;2022-08-01T07:04:38;5.88;;;4.40;;
70707;SDS011;58277;47.316;18.908;2022-08-01T07:07:01;8.30;;;4.60;;
70707;SDS011;58277;47.316;18.908;2022-08-01T07:09:24;6.35;;;4.60;;
70707;SDS011;58277;47.316;18.908;2022-08-01T07:11:47;7.15;;;4.40;;
70707;SDS011;58277;47.316;18.908;2022-08-01T07:14:09;8.13;;;4.60;;
70707;SDS011;58277;47.316;18.908;2022-08-01T07:16:32;6.63;;;4.72;;
70707;SDS011;58277;47.316;18.908;2022-08-01T07:18:55;5.80;;;4.57;;
70707;SDS011;58277;47.316;18.908;2022-08-01T07:21:17;5.88;;;4.18;;
70707;SDS011;58277;47.316;18.908;2022-08-01T07:24:00;5.50;;;4.25;;
70707;SDS011;58277;47.316;18.908;2022-08-01T07:26:34;4.45;;;3.85;;
70707;SDS011;58277;47.316;18.908;2022-08-01T07:28:57;5.10;;;3.97;;
70707;SDS011;58277;47.316;18.908;2022-08-01T07:31:20;5.73;;;3.93;;
70707;SDS011;58277;47.316;18.908;2022-08-01T07:33:43;5.95;;;4.47;;
70707;SDS011;58277;47.316;18.908;2022-08-01T07:36:10;5.70;;;4.40;;
70707;SDS011;58277;47.316;18.908;2022-08-01T07:38:33;5.88;;;4.00;;
70707;SDS011;58277;47.316;18.908;2022-08-01T07:40:56;5.47;;;4.28;;
70707;SDS011;58277;47.316;18.908;2022-08-01T07:43:18;5.80;;;4.20;;
70707;SDS011;58277;47.316;18.908;2022-08-01T07:45:41;7.03;;;4.60;;
70707;SDS011;58277;47.316;18.908;2022-08-01T07:48:07;4.90;;;4.32;;
70707;SDS011;58277;47.316;18.908;2022-08-01T07:50:31;6.78;;;4.53;;
70707;SDS011;58277;47.316;18.908;2022-08-01T07:52:55;6.68;;;3.80;;
70707;SDS011;58277;47.316;18.908;2022-08-01T07:55:18;4.17;;;3.50;;
70707;SDS011;58277;47.316;18.908;2022-08-01T07:57:40;6.32;;;3.88;;
70707;SDS011;58277;47.316;18.908;2022-08-01T08:00:04;4.43;;;3.78;;
70707;SDS011;58277;47.316;18.908;2022-08-01T08:02:30;5.13;;;4.57;;
70707;SDS011;58277;47.316;18.908;2022-08-01T08:04:53;5.25;;;4.20;;
70707;SDS011;58277;47.316;18.908;2022-08-01T08:07:15;5.67;;;3.70;;
70707;SDS011;58277;47.316;18.908;2022-08-01T08:09:41;6.65;;;4.00;;
70707;SDS011;58277;47.316;18.908;2022-08-01T08:12:04;5.47;;;3.88;;
70707;SDS011;58277;47.316;18.908;2022-08-01T08:14:28;5.07;;;3.72;;
70707;SDS011;58277;47.316;18.908;2022-08-01T08:16:54;5.90;;;4.18;;
70707;SDS011;58277;47.316;18.908;2022-08-01T08:19:19;5.63;;;3.90;;
70707;SDS011;58277;47.316;18.908;2022-08-01T08:21:59;4.68;;;3.90;;
70707;SDS011;58277;47.316;18.908;2022-08-01T08:24:23;4.72;;;3.85;;
70707;SDS011;58277;47.316;18.908;2022-08-01T08:26:52;5.80;;;4.00;;
70707;SDS011;58277;47.316;18.908;2022-08-01T08:29:19;4.65;;;4.00;;
70707;SDS011;58277;47.316;18.908;2022-08-01T08:31:44;5.33;;;3.90;;
70707;SDS011;58277;47.316;18.908;2022-08-01T08:34:14;7.15;;;4.00;;
70707;SDS011;58277;47.316;18.908;2022-08-01T08:36:37;5.78;;;4.57;;
70707;SDS011;58277;47.316;18.908;2022-08-01T08:39:09;6.28;;;4.22;;
70707;SDS011;58277;47.316;18.908;2022-08-01T08:41:32;7.28;;;4.15;;
70707;SDS011;58277;47.316;18.908;2022-08-01T08:44:04;6.90;;;3.90;;
70707;SDS011;58277;47.316;18.908;2022-08-01T08:46:32;6.90;;;4.82;;
70707;SDS011;58277;47.316;18.908;2022-08-01T08:48:55;7.22;;;4.72;;
70707;SDS011;58277;47.316;18.908;2022-08-01T08:51:19;6.53;;;4.10;;
70707;SDS011;58277;47.316;18.908;2022-08-01T08:53:46;5.18;;;4.10;;
70707;SDS011;58277;47.316;18.908;2022-08-01T08:56:10;4.43;;;4.03;;
70707;SDS011;58277;47.316;18.908;2022-08-01T08:58:35;7.85;;;4.20;;
70707;SDS011;58277;47.316;18.908;2022-08-01T09:01:00;7.13;;;4.50;;
70707;SDS011;58277;47.316;18.908;2022-08-01T09:03:22;6.45;;;4.13;;
70707;SDS011;58277;47.316;18.908;2022-08-01T09:05:45;6.70;;;4.30;;
70707;SDS011;58277;47.316;18.908;2022-08-01T09:08:08;5.57;;;4.17;;
70707;SDS011;58277;47.316;18.908;2022-08-01T09:10:31;7.53;;;4.88;;
70707;SDS011;58277;47.316;18.908;2022-08-01T09:15:43;6.90;;;4.63;;
70707;SDS011;58277;47.316;18.908;2022-08-01T09:18:30;7.60;;;5.10;;
70707;SDS011;58277;47.316;18.908;2022-08-01T09:26:17;8.10;;;4.97;;
70707;SDS011;58277;47.316;18.908;2022-08-01T09:28:42;6.15;;;4.75;;
70707;SDS011;58277;47.316;18.908;2022-08-01T09:31:10;6.65;;;4.75;;
70707;SDS011;58277;47.316;18.908;2022-08-01T09:33:47;5.70;;;4.67;;
70707;SDS011;58277;47.316;18.908;2022-08-01T09:36:20;6.68;;;4.93;;
70707;SDS011;58277;47.316;18.908;2022-08-01T09:38:45;5.43;;;4.90;;
70707;SDS011;58277;47.316;18.908;2022-08-01T09:41:12;6.20;;;4.68;;
70707;SDS011;58277;47.316;18.908;2022-08-01T09:43:35;6.50;;;5.20;;
70707;SDS011;58277;47.316;18.908;2022-08-01T09:45:59;7.50;;;5.10;;
70707;SDS011;58277;47.316;18.908;2022-08-01T09:48:26;7.18;;;5.00;;
70707;SDS011;58277;47.316;18.908;2022-08-01T09:50:51;8.40;;;4.90;;
70707;SDS011;58277;47.316;18.908;2022-08-01T09:53:16;6.97;;;5.20;;
70707;SDS011;58277;47.316;18.908;2022-08-01T09:55:52;6.30;;;4.80;;
70707;SDS011;58277;47.316;18.908;2022-08-01T09:58:16;6.37;;;5.00;;
70707;SDS011;58277;47.316;18.908;2022-08-01T10:00:39;7.25;;;5.22;;
70707;SDS011;58277;47.316;18.908;2022-08-01T10:03:25;6.20;;;5.03;;
70707;SDS011;58277;47.316;18.908;2022-08-01T10:05:49;5.90;;;4.80;;
70707;SDS011;58277;47.316;18.908;2022-08-01T10:08:13;6.78;;;5.28;;
70707;SDS011;58277;47.316;18.908;2022-08-01T10:13:33;5.57;;;4.97;;
70707;SDS011;58277;47.316;18.908;2022-08-01T10:15:57;7.20;;;5.78;;
70707;SDS011;58277;47.316;18.908;2022-08-01T10:18:22;6.72;;;4.90;;
70707;SDS011;58277;47.316;18.908;2022-08-01T10:20:47;6.15;;;5.55;;
70707;SDS011;58277;47.316;18.908;2022-08-01T10:23:10;5.10;;;4.60;;
70707;SDS011;58277;47.316;18.908;2022-08-01T10:25:35;6.35;;;5.35;;
70707;SDS011;58277;47.316;18.908;2022-08-01T10:28:10;5.82;;;5.30;;
70707;SDS011;58277;47.316;18.908;2022-08-01T10:30:45;6.38;;;5.10;;
70707;SDS011;58277;47.316;18.908;2022-08-01T10:33:10;6.55;;;5.10;;
70707;SDS011;58277;47.316;18.908;2022-08-01T10:35:53;5.83;;;5.20;;
70707;SDS011;58277;47.316;18.908;2022-08-01T10:38:17;6.35;;;5.10;;
70707;SDS011;58277;47.316;18.908;2022-08-01T10:40:43;5.93;;;5.43;;
70707;SDS011;58277;47.316;18.908;2022-08-01T10:43:06;5.70;;;5.20;;
70707;SDS011;58277;47.316;18.908;2022-08-01T10:45:31;5.57;;;5.07;;
70707;SDS011;58277;47.316;18.908;2022-08-01T10:50:42;5.25;;;4.75;;
70707;SDS011;58277;47.316;18.908;2022-08-01T10:53:14;5.57;;;4.40;;
70707;SDS011;58277;47.316;18.908;2022-08-01T10:58:20;4.95;;;4.45;;
70707;SDS011;58277;47.316;18.908;2022-08-01T11:00:46;6.57;;;4.73;;
70707;SDS011;58277;47.316;18.908;2022-08-01T11:03:09;5.65;;;4.45;;
70707;SDS011;58277;47.316;18.908;2022-08-01T11:05:33;5.60;;;4.55;;
70707;SDS011;58277;47.316;18.908;2022-08-01T11:08:01;5.20;;;4.70;;
70707;SDS011;58277;47.316;18.908;2022-08-01T11:10:34;6.05;;;4.80;;
70707;SDS011;58277;47.316;18.908;2022-08-01T11:13:01;5.13;;;4.63;;
70707;SDS011;58277;47.316;18.908;2022-08-01T11:15:25;5.03;;;4.53;;
70707;SDS011;58277;47.316;18.908;2022-08-01T11:17:52;5.63;;;4.88;;
70707;SDS011;58277;47.316;18.908;2022-08-01T11:20:20;6.65;;;4.78;;
70707;SDS011;58277;47.316;18.908;2022-08-01T11:28:20;4.75;;;4.03;;
70707;SDS011;58277;47.316;18.908;2022-08-01T11:38:33;5.93;;;4.20;;
70707;SDS011;58277;47.316;18.908;2022-08-01T11:41:10;5.00;;;4.00;;
70707;SDS011;58277;47.316;18.908;2022-08-01T11:43:33;4.63;;;4.13;;
70707;SDS011;58277;47.316;18.908;2022-08-01T11:45:56;4.60;;;4.20;;
70707;SDS011;58277;47.316;18.908;2022-08-01T11:48:23;4.28;;;3.88;;
70707;SDS011;58277;47.316;18.908;2022-08-01T11:50:49;3.80;;;3.50;;
70707;SDS011;58277;47.316;18.908;2022-08-01T11:53:13;5.13;;;3.85;;
70707;SDS011;58277;47.316;18.908;2022-08-01T11:55:46;5.05;;;4.40;;
70707;SDS011;58277;47.316;18.908;2022-08-01T11:58:12;4.30;;;3.70;;
70707;SDS011;58277;47.316;18.908;2022-08-01T12:00:50;4.07;;;2.67;;
70707;SDS011;58277;47.316;18.908;2022-08-01T12:03:14;5.43;;;3.50;;
70707;SDS011;58277;47.316;18.908;2022-08-01T12:05:55;3.60;;;2.90;;
70707;SDS011;58277;47.316;18.908;2022-08-01T12:08:25;4.15;;;3.60;;
70707;SDS011;58277;47.316;18.908;2022-08-01T12:10:49;3.72;;;3.42;;
70707;SDS011;58277;47.316;18.908;2022-08-01T12:13:23;4.15;;;3.75;;
70707;SDS011;58277;47.316;18.908;2022-08-01T12:15:46;4.87;;;4.40;;
70707;SDS011;58277;47.316;18.908;2022-08-01T12:18:12;5.43;;;4.00;;
70707;SDS011;58277;47.316;18.908;2022-08-01T12:20:36;4.22;;;3.83;;
70707;SDS011;58277;47.316;18.908;2022-08-01T12:23:15;4.57;;;3.97;;
70707;SDS011;58277;47.316;18.908;2022-08-01T12:25:39;4.35;;;3.95;;
70707;SDS011;58277;47.316;18.908;2022-08-01T12:28:06;5.23;;;3.67;;
70707;SDS011;58277;47.316;18.908;2022-08-01T12:30:31;5.10;;;4.05;;
70707;SDS011;58277;47.316;18.908;2022-08-01T12:32:57;5.07;;;4.25;;
70707;SDS011;58277;47.316;18.908;2022-08-01T12:35:21;4.45;;;4.05;;
70707;SDS011;58277;47.316;18.908;2022-08-01T12:37:49;6.55;;;4.20;;
70707;SDS011;58277;47.316;18.908;2022-08-01T12:40:17;5.73;;;4.47;;
70707;SDS011;58277;47.316;18.908;2022-08-01T12:42:49;4.57;;;4.18;;
70707;SDS011;58277;47.316;18.908;2022-08-01T12:45:14;6.25;;;4.40;;
70707;SDS011;58277;47.316;18.908;2022-08-01T12:47:39;8.02;;;4.00;;
70707;SDS011;58277;47.316;18.908;2022-08-01T12:50:04;4.88;;;4.38;;
70707;SDS011;58277;47.316;18.908;2022-08-01T12:52:31;5.53;;;4.67;;
70707;SDS011;58277;47.316;18.908;2022-08-01T12:55:00;6.18;;;4.72;;
70707;SDS011;58277;47.316;18.908;2022-08-01T12:57:31;5.05;;;4.53;;
70707;SDS011;58277;47.316;18.908;2022-08-01T13:00:04;7.10;;;4.53;;
70707;SDS011;58277;47.316;18.908;2022-08-01T13:02:34;5.78;;;4.60;;
70707;SDS011;58277;47.316;18.908;2022-08-01T13:04:57;5.20;;;4.70;;
70707;SDS011;58277;47.316;18.908;2022-08-01T13:07:20;5.45;;;4.63;;
70707;SDS011;58277;47.316;18.908;2022-08-01T13:09:50;7.00;;;4.43;;
70707;SDS011;58277;47.316;18.908;2022-08-01T13:12:13;5.20;;;4.70;;
70707;SDS011;58277;47.316;18.908;2022-08-01T13:14:36;6.38;;;4.75;;
70707;SDS011;58277;47.316;18.908;2022-08-01T13:17:03;6.43;;;4.70;;
70707;SDS011;58277;47.316;18.908;2022-08-01T13:19:42;4.95;;;4.00;;
70707;SDS011;58277;47.316;18.908;2022-08-01T13:22:06;4.53;;;4.00;;
70707;SDS011;58277;47.316;18.908;2022-08-01T13:24:29;4.20;;;3.80;;
70707;SDS011;58277;47.316;18.908;2022-08-01T13:26:53;4.30;;;3.90;;
70707;SDS011;58277;47.316;18.908;2022-08-01T13:29:19;3.73;;;3.37;;
70707;SDS011;58277;47.316;18.908;2022-08-01T13:31:45;5.65;;;3.70;;
70707;SDS011;58277;47.316;18.908;2022-08-01T13:34:09;4.22;;;3.83;;
70707;SDS011;58277;47.316;18.908;2022-08-01T13:36:32;4.70;;;3.70;;
70707;SDS011;58277;47.316;18.908;2022-08-01T13:38:56;4.45;;;3.70;;
70707;SDS011;58277;47.316;18.908;2022-08-01T13:41:38;4.60;;;3.70;;
70707;SDS011;58277;47.316;18.908;2022-08-01T13:44:01;7.07;;;3.95;;
70707;SDS011;58277;47.316;18.908;2022-08-01T13:46:23;4.30;;;3.90;;
70707;SDS011;58277;47.316;18.908;2022-08-01T13:48:47;4.57;;;3.97;;
70707;SDS011;58277;47.316;18.908;2022-08-01T13:51:11;4.38;;;3.97;;
70707;SDS011;58277;47.316;18.908;2022-08-01T13:53:44;4.23;;;3.70;;
70707;SDS011;58277;47.316;18.908;2022-08-01T13:56:06;4.65;;;3.60;;
70707;SDS011;58277;47.316;18.908;2022-08-01T13:58:29;4.28;;;3.88;;
70707;SDS011;58277;47.316;18.908;2022-08-01T14:00:52;4.20;;;3.80;;
70707;SDS011;58277;47.316;18.908;2022-08-01T14:03:14;4.10;;;3.70;;
70707;SDS011;58277;47.316;18.908;2022-08-01T14:05:38;5.10;;;3.90;;
70707;SDS011;58277;47.316;18.908;2022-08-01T14:08:02;5.85;;;3.90;;
70707;SDS011;58277;47.316;18.908;2022-08-01T14:10:25;4.30;;;3.90;;
70707;SDS011;58277;47.316;18.908;2022-08-01T14:12:48;4.97;;;3.72;;
70707;SDS011;58277;47.316;18.908;2022-08-01T14:15:10;4.82;;;3.97;;
70707;SDS011;58277;47.316;18.908;2022-08-01T14:17:34;4.20;;;3.80;;
70707;SDS011;58277;47.316;18.908;2022-08-01T14:19:59;4.80;;;4.00;;
70707;SDS011;58277;47.316;18.908;2022-08-01T14:22:21;4.50;;;3.97;;
70707;SDS011;58277;47.316;18.908;2022-08-01T14:24:44;5.50;;;4.05;;
70707;SDS011;58277;47.316;18.908;2022-08-01T14:27:08;4.72;;;4.20;;
70707;SDS011;58277;47.316;18.908;2022-08-01T14:29:31;4.97;;;3.70;;
70707;SDS011;58277;47.316;18.908;2022-08-01T14:32:14;4.47;;;3.97;;
70707;SDS011;58277;47.316;18.908;2022-08-01T14:34:36;5.10;;;4.18;;
70707;SDS011;58277;47.316;18.908;2022-08-01T14:36:59;4.78;;;4.25;;
70707;SDS011;58277;47.316;18.908;2022-08-01T14:39:24;4.55;;;3.95;;
70707;SDS011;58277;47.316;18.908;2022-08-01T14:41:47;8.27;;;4.20;;
70707;SDS011;58277;47.316;18.908;2022-08-01T14:44:09;4.72;;;4.00;;
70707;SDS011;58277;47.316;18.908;2022-08-01T14:46:32;4.80;;;4.18;;
70707;SDS011;58277;47.316;18.908;2022-08-01T14:48:55;4.78;;;4.10;;
70707;SDS011;58277;47.316;18.908;2022-08-01T14:51:18;4.78;;;3.80;;
70707;SDS011;58277;47.316;18.908;2022-08-01T14:53:41;7.60;;;4.23;;
70707;SDS011;58277;47.316;18.908;2022-08-01T14:56:12;4.88;;;4.38;;
70707;SDS011;58277;47.316;18.908;2022-08-01T14:58:34;5.32;;;4.18;;
70707;SDS011;58277;47.316;18.908;2022-08-01T15:00:57;5.10;;;4.60;;
70707;SDS011;58277;47.316;18.908;2022-08-01T15:03:21;5.93;;;4.30;;
70707;SDS011;58277;47.316;18.908;2022-08-01T15:05:44;6.00;;;4.33;;
70707;SDS011;58277;47.316;18.908;2022-08-01T15:08:07;4.80;;;4.30;;